Ruggero Grasso

Olheiro-Chefe - Frosinone
13 Abr 2028
Quinta-feira
Processo

Personalidade

Adaptabilidade (2) Ambição (6) Controvérsia (13) Lealdade (7) Pressão (11) Profissionalismo (6) Espírito Esportivo (16) Temperamento (19)

Perfil

Estilo de Treinamento Democrático
Licença Nacional B
Determinação 6
Gestão de Pessoas 9
Motivação 7
Disciplina 7
Satisfação no Trabalho
100%
Fadiga
0%
Função Olheiro-Chefe
Salário 36.4K p/s
Contrato 14.03.2030

Desempenho

Comportamento Bom
Eficácia do Treinamento
43%
Desenvolvimento do Jogador
45%
Prevenção de Lesões
50%
Implementação Tática
55%

Eventos Recentes

Aniversário 49d atrás

Monitorando agora

94
Jogador Clube Status Habilidade Confiança Observado Última observação Último voto
Mattia Sandri Casertana Ativo 105 / 114 86% 1 31.01.2028 Aprovar
Enzo Copetti Rosario Central Ativo 125 / 115 40% 1 07.01.2028 -
Nicolás Fernández Belgrano Ativo 124 / 119 40% 1 07.01.2028 -
Bahmed Deuff FC Metz Ativo 122 / 123 40% 3 01.01.2028 -
Gopolang Taunyane Ajax Cape Town Ativo 102 / 103 40% 1 01.01.2028 -
Hassan Beja AFC Leopards Ativo 86 / 88 40% 3 31.08.2027 -
Wilfred Correa Caracas Ativo 93 / 98 40% 4 31.08.2027 -
Sipho Ngqakabana AS Police Ativo 83 / 80 40% 1 31.08.2027 -
Nupe Godstime Bayelsa United Ativo 88 / 102 40% 8 30.08.2027 -
Felipe Serrés Wanderers Ativo 93 / 107 40% 2 30.08.2027 -
Afriyie Sulemana Hasaacas Ativo 95 / 98 40% 1 30.08.2027 -
Mirko Parassole Agropecuario Argentino Ativo 89 / 90 40% 1 30.08.2027 -
Mateo Lizondo Colón Ativo 96 / 107 40% 6 28.08.2027 -
Rafael Vargas Cortulua Ativo 89 / 94 40% 1 28.08.2027 -
Martín Jiménez Audax Italiano Ativo 98 / 100 40% 1 28.08.2027 -
Tobi Ige Bendel Insurance Ativo 91 / 91 40% 2 25.08.2027 -
Matías Acevedo Racing Club Ativo 105 / 111 40% 1 25.08.2027 -
Vadim Arutyunyan Dnepr Mogilev Ativo 94 / 88 40% 1 24.08.2027 -
Facundo Balatti Penarol Ativo 102 / 117 40% 1 23.08.2027 -
Diego Opazo Santiago Wanderers Ativo 86 / 86 40% 1 21.08.2027 -
Joseph Abah Nasarawa United Ativo 86 / 86 40% 1 21.08.2027 -
Elias Baum Eintracht Frankfurt Ativo 135 / 129 40% 1 21.08.2027 -
Bruno Fernández Independiente Ativo 86 / 92 40% 1 18.08.2027 -
Manuel Rodríguez Millonarios Ativo 90 / 88 40% 1 18.08.2027 -
Solomon Loubao Monza Ativo 92 / 108 40% 1 18.08.2027 -
Noah Streit CF Montreal Ativo 114 / 109 40% 3 14.08.2027 -
Alejandro Almaraz Oviedo Ativo 113 / 127 40% 1 14.08.2027 -
Juan Diego Perdomo Depor Ativo 90 / 92 40% 1 12.08.2027 -
Francisco Triver River Plate Ativo 91 / 98 40% 1 09.08.2027 -
Nicolás Barros Schelotto Gimnasia La Plata Ativo 120 / 131 40% 1 09.08.2027 -
Teo Rodríguez Pagano San Lorenzo Ativo 117 / 117 40% 2 08.08.2027 -
Ahmad Lamido Wikki Tourists Ativo 83 / 96 40% 3 08.08.2027 -
Lautaro Millán Independiente Ativo 123 / 130 40% 4 07.08.2027 -
Tiago Freitas Benfica Ativo 114 / 125 40% 3 07.08.2027 -
Mattia Rutigliano Pro Vercelli Ativo 101 / 104 40% 1 07.08.2027 -
Martim Cunha Porto Ativo 107 / 106 40% 5 05.08.2027 -
Mats Egbring Heerenveen Ativo 101 / 108 40% 8 05.08.2027 -
Mattia Della Rocca Pontedera Ativo 93 / 97 40% 2 02.08.2027 -
Alan Coria Villarreal Ativo 108 / 118 40% 3 02.08.2027 -
Federico Coletta Benfica Ativo 101 / 106 40% 2 01.08.2027 -
Kian Best Eibar Ativo 100 / 114 40% 2 31.07.2027 -
Alphadjo Cissé Hellas Verona Ativo 128 / 138 40% 2 27.07.2027 -
Elie N'Gatta Sochaux Ativo 97 / 97 40% 5 25.07.2027 -
Nikita Posmashny Chaika Ativo 90 / 98 40% 1 15.07.2027 -
Federico Casolari Cittadella Ativo 118 / 122 86% 1 12.07.2027 Aprovar
Mohamed Touré Viktoria Plzen Ativo 107 / 124 40% 1 10.07.2027 -
Olti Hyseni Brondby Ativo 113 / 129 40% 1 06.07.2027 -
Marius Courcoul Olympique de Marseille Ativo 116 / 121 40% 2 05.07.2027 -
Francesco D'Alessio Cittadella Ativo 113 / 109 86% 1 05.07.2027 Aprovar
Juan David Obando Dinamo Barnaul Ativo 88 / 84 40% 1 03.07.2027 -
Alin Kumer Čelik Genoa Ativo 97 / 104 40% 1 03.07.2027 -
Luca Maiorano Ospitaletto Ativo 97 / 99 40% 3 01.07.2027 -
Miguel Figueiredo Benfica Ativo 109 / 128 40% 1 29.06.2027 -
Joe Knight Stevenage Ativo 104 / 111 40% 2 28.06.2027 -
Borna Knezović Casarano Ativo 108 / 109 40% 2 28.06.2027 -
Gady Beyuku Modena Ativo 114 / 114 40% 3 27.06.2027 -
Mateus Mide Porto Ativo 100 / 104 40% 2 27.06.2027 -
Mattia Mannini Juve Stabia Ativo 114 / 115 40% 3 26.06.2027 -
Pedro Vian Seewald Arzignano Ativo 99 / 95 40% 4 25.06.2027 -
Daniel Banjaqui Benfica Ativo 119 / 123 40% 1 24.06.2027 -
Bernardo Lima Porto Ativo 97 / 105 40% 1 24.06.2027 -
Alessio Insignito Spezia Ativo 100 / 110 40% 3 22.06.2027 -
Lander Astiazarán Real Sociedad Ativo 103 / 118 40% 1 22.06.2027 -
Konstantinos Karetsas Borussia Dortmund Ativo 124 / 125 40% 2 21.06.2027 -
Kabiru Abdullahi Northampton Town Ativo 90 / 92 40% 1 20.06.2027 -
Landerson Moreirense Ativo 103 / 104 40% 2 19.06.2027 -
Alessandro Ventre Vis Pesaro Ativo 92 / 98 40% 3 19.06.2027 -
Otto Stange Hamburger SV Ativo 119 / 120 40% 2 19.06.2027 -
Paulo Cardoso Sporting CP Ativo 98 / 101 40% 2 17.06.2027 -
Alexis Vossah Toulouse FC Ativo 117 / 132 40% 1 16.06.2027 -
João Abreu Porto Ativo 89 / 100 40% 3 08.06.2027 -
André Miranda Porto Ativo 102 / 109 40% 2 05.06.2027 -
Niko Kovač Groningen Ativo 94 / 100 40% 1 31.01.2027 -
Viktor Pekarik FK Senica Ativo 113 / 129 40% 2 29.01.2027 -
Taras Mykhavko Dynamo Kyiv Ativo 116 / 121 40% 1 13.01.2027 -
Ivan Shilenok Zenit Ativo 84 / 85 40% 2 11.01.2027 -
Agustín Obregón River Plate Ativo 108 / 116 40% 2 10.01.2027 -
Juan Rodríguez Cagliari Ativo 121 / 122 40% 1 01.01.2027 -
Denys Smetana Inhulets Ativo 90 / 88 40% 1 01.01.2027 -
Mauricio Amaro Atlanta United FC Ativo 114 / 124 40% 2 29.08.2026 -
Patrick Kelly Barnsley Ativo 104 / 112 40% 1 28.08.2026 -
Mbekezeli Mbokazi Chicago Fire Ativo 121 / 119 40% 1 28.08.2026 -
Christopher Shaw Liverpool Ativo 104 / 108 40% 1 26.08.2026 -
Juan Giménez Athletic Bilbao Ativo 108 / 119 40% 1 26.08.2026 -
Nahuel Herrera Porto Ativo 121 / 126 40% 2 18.08.2026 -
Axel Frugone Defensor Sporting Ativo 115 / 129 40% 1 18.08.2026 -
Zach Abbott Nottingham Forest Ativo 111 / 116 40% 1 18.08.2026 -
José Pachuca Puebla Ativo 97 / 105 40% 1 16.08.2026 -
Octavio Ontivero Lanús Ativo 99 / 113 40% 1 15.08.2026 -
Fabio Andrea Ruggeri Carrarese Ativo 115 / 123 40% 1 07.08.2026 -
Juan Pablo De la Reta Maipú Ativo 113 / 113 40% 1 05.08.2026 -
Pablo Ferreira Platense Ativo 100 / 117 40% 1 03.08.2026 -
Darryl Bakola Sassuolo Ativo 97 / 109 40% 1 02.08.2026 -
Justin-Noël Kalumba Mallorca Ativo 111 / 106 40% 1 02.08.2026 -